createdAt,value
2018-05-02T00:04:47.423Z,95271
2018-05-02T00:10:15.551Z,95266
2018-05-02T00:15:43.685Z,95268
2018-05-02T00:21:11.819Z,95257
2018-05-02T00:26:40.719Z,95263
2018-05-02T00:32:09.272Z,95256
2018-05-02T00:37:38.172Z,95244
2018-05-02T00:43:06.327Z,95241
2018-05-02T00:48:35.246Z,95236
2018-05-02T00:54:03.404Z,95228
2018-05-02T00:59:31.540Z,95228
2018-05-02T01:04:59.688Z,95228
2018-05-02T01:10:29.792Z,95205
2018-05-02T01:15:58.732Z,95197
2018-05-02T01:21:28.581Z,95195
2018-05-02T01:26:56.720Z,95194
2018-05-02T01:32:28.629Z,95191
2018-05-02T01:38:00.891Z,95210
2018-05-02T01:43:29.064Z,95226
2018-05-02T01:49:15.983Z,95227
2018-05-02T01:54:44.124Z,95225
2018-05-02T02:00:12.271Z,95222
2018-05-02T02:05:41.182Z,95224
2018-05-02T02:11:09.319Z,95224
2018-05-02T02:16:37.572Z,95230
2018-05-02T02:22:05.717Z,95224
2018-05-02T02:27:33.872Z,95233
2018-05-02T02:33:03.154Z,95227
2018-05-02T02:38:31.278Z,95209
2018-05-02T02:43:59.428Z,95215
2018-05-02T02:49:27.567Z,95197
2018-05-02T02:54:55.692Z,95207
2018-05-02T03:00:24.583Z,95202
2018-05-02T03:05:52.722Z,95205
2018-05-02T03:11:20.859Z,95195
2018-05-02T03:16:49.919Z,95182
2018-05-02T03:22:18.823Z,95173
2018-05-02T03:27:46.951Z,95167
2018-05-02T03:33:15.094Z,95165
2018-05-02T03:38:44.020Z,95157
2018-05-02T03:44:12.157Z,95147
2018-05-02T03:49:45.257Z,95151
2018-05-02T03:55:13.460Z,95153
2018-05-02T04:00:59.492Z,95150
2018-05-02T04:13:05.601Z,95140
2018-05-02T04:18:33.773Z,95149
2018-05-02T04:24:01.915Z,95153
2018-05-02T04:29:30.086Z,95148
2018-05-02T04:34:58.971Z,95141
2018-05-02T04:40:27.115Z,95145
2018-05-02T04:45:55.262Z,95149
2018-05-02T04:51:23.389Z,95160
2018-05-02T04:56:53.220Z,95135
2018-05-02T05:02:21.367Z,95125
2018-05-02T05:07:50.268Z,95128
2018-05-02T05:13:26.971Z,95142
2018-05-02T05:18:55.113Z,95153
2018-05-02T05:24:23.250Z,95149
2018-05-02T05:29:51.466Z,95149
2018-05-02T05:35:19.660Z,95139
2018-05-02T05:40:47.779Z,95139
2018-05-02T05:46:15.904Z,95146
2018-05-02T05:51:44.039Z,95134
2018-05-02T05:57:12.199Z,95135
2018-05-02T06:02:40.319Z,95143
2018-05-02T06:08:08.463Z,95143
2018-05-02T06:13:36.603Z,95139
2018-05-02T06:19:04.743Z,95139
2018-05-02T06:24:32.884Z,95129
2018-05-02T06:30:01.809Z,95125
2018-05-02T06:35:30.722Z,95130
2018-05-02T06:40:58.973Z,95128
2018-05-02T06:46:28.808Z,95113
2018-05-02T06:51:56.955Z,95107
2018-05-02T06:57:25.851Z,95108
2018-05-02T07:02:53.980Z,95118
2018-05-02T07:08:22.136Z,95109
2018-05-02T07:13:51.038Z,95110
2018-05-02T07:19:19.175Z,95102
2018-05-02T07:24:47.317Z,95106
2018-05-02T07:30:16.213Z,95103
2018-05-02T07:35:44.355Z,95102
2018-05-02T07:41:13.256Z,95092
2018-05-02T07:46:41.418Z,95085
2018-05-02T07:52:10.305Z,95089
2018-05-02T07:57:38.455Z,95090
2018-05-02T08:03:06.605Z,95090
2018-05-02T08:08:34.741Z,95097
2018-05-02T08:14:02.916Z,95087
2018-05-02T08:19:31.057Z,95086
2018-05-02T08:24:59.963Z,95082
2018-05-02T08:30:28.108Z,95076
2018-05-02T08:35:57.000Z,95063
2018-05-02T08:41:25.146Z,95062
2018-05-02T08:46:55.230Z,95056
2018-05-02T08:52:24.134Z,95071
2018-05-02T08:57:52.271Z,95048
2018-05-02T09:03:20.412Z,95040
2018-05-02T09:08:49.348Z,95059
2018-05-02T09:14:18.247Z,95051
2018-05-02T09:19:46.388Z,95041
2018-05-02T09:25:14.526Z,95047
2018-05-02T09:30:43.449Z,95037
2018-05-02T09:36:12.344Z,95029
2018-05-02T09:41:40.486Z,95018
2018-05-02T09:47:08.626Z,95012
2018-05-02T09:52:37.526Z,95011
2018-05-02T09:58:05.662Z,95008
2018-05-02T10:03:34.107Z,95007
2018-05-02T10:09:03.022Z,95010
2018-05-02T10:14:31.220Z,95002
2018-05-02T10:19:59.373Z,95009
2018-05-02T10:25:27.503Z,95006
2018-05-02T10:30:55.699Z,94988
2018-05-02T10:36:23.776Z,94989
2018-05-02T10:41:52.910Z,95000
2018-05-02T10:47:21.039Z,94990
2018-05-02T10:52:49.264Z,94993
2018-05-02T10:58:23.647Z,94990
2018-05-02T11:03:51.806Z,94989
2018-05-02T11:09:20.720Z,94984
2018-05-02T11:14:49.051Z,94984
2018-05-02T11:20:17.850Z,94987
2018-05-02T11:25:46.002Z,94995
2018-05-02T11:31:14.133Z,94994
2018-05-02T11:36:44.203Z,94994
2018-05-02T11:42:12.344Z,94984
2018-05-02T11:47:41.263Z,94992
2018-05-02T11:53:10.174Z,94983
2018-05-02T11:58:38.318Z,94953
2018-05-02T12:04:06.499Z,94939
2018-05-02T12:09:34.662Z,94923
2018-05-02T12:15:02.938Z,94908
2018-05-02T12:20:31.084Z,94895
2018-05-02T12:25:59.277Z,94907
2018-05-02T12:31:27.461Z,94897
2018-05-02T12:36:58.930Z,94903
2018-05-02T12:42:27.183Z,94896
2018-05-02T12:47:56.305Z,94897
2018-05-02T12:53:25.213Z,94887
2018-05-02T12:58:53.365Z,94877
2018-05-02T13:04:22.306Z,94869
2018-05-02T13:09:51.212Z,94858
2018-05-02T13:15:19.351Z,94865
2018-05-02T13:20:47.527Z,94868
2018-05-02T13:26:15.678Z,94848
2018-05-02T13:31:43.811Z,94847
2018-05-02T13:37:11.940Z,94830
2018-05-02T13:42:40.857Z,94826
2018-05-02T13:48:08.984Z,94825
2018-05-02T13:53:37.133Z,94816
2018-05-02T13:59:05.272Z,94812
2018-05-02T14:04:33.437Z,94808
2018-05-02T14:10:01.586Z,94805
2018-05-02T14:15:29.721Z,94808
2018-05-02T14:20:57.950Z,94811
2018-05-02T14:26:26.117Z,94815
2018-05-02T14:31:54.281Z,94818
2018-05-02T14:37:22.452Z,94817
2018-05-02T14:42:50.583Z,94810
2018-05-02T14:48:19.519Z,94814
2018-05-02T14:53:48.452Z,94810
2018-05-02T14:59:17.435Z,94806
2018-05-02T15:04:45.608Z,94812
2018-05-02T15:10:13.753Z,94812
2018-05-02T15:15:42.649Z,94813
2018-05-02T15:21:10.822Z,94811
2018-05-02T15:26:38.949Z,94814
2018-05-02T15:32:07.082Z,94808
2018-05-02T15:37:35.303Z,94805
2018-05-02T15:43:03.508Z,94812
2018-05-02T15:48:31.694Z,94801
2018-05-02T15:54:00.879Z,94810
2018-05-02T15:59:29.065Z,94809
2018-05-02T16:04:57.984Z,94805
2018-05-02T16:10:26.284Z,94805
2018-05-02T16:15:54.599Z,94808
2018-05-02T16:21:23.856Z,94805
2018-05-02T16:26:55.207Z,94799
2018-05-02T16:32:23.358Z,94802
2018-05-02T16:37:52.440Z,94810
2018-05-02T16:43:20.606Z,94811
2018-05-02T16:48:48.754Z,94820
2018-05-02T16:54:17.885Z,94813
2018-05-02T16:59:46.060Z,94821
2018-05-02T17:05:14.971Z,94822
2018-05-02T17:10:43.228Z,94817
2018-05-02T17:16:11.369Z,94828
2018-05-02T17:21:39.496Z,94831
2018-05-02T17:27:08.411Z,94838
2018-05-02T17:32:36.566Z,94840
2018-05-02T17:38:04.761Z,94849
2018-05-02T17:43:32.965Z,94844
2018-05-02T17:49:02.065Z,94843
2018-05-02T17:54:30.372Z,94855
2018-05-02T17:59:58.835Z,94852
2018-05-02T18:05:27.012Z,94852
2018-05-02T18:10:55.179Z,94854
2018-05-02T18:16:28.309Z,94857
2018-05-02T18:21:57.224Z,94861
2018-05-02T18:27:25.590Z,94862
2018-05-02T18:32:53.753Z,94870
2018-05-02T18:38:22.841Z,94877
2018-05-02T18:43:52.325Z,94885
2018-05-02T18:49:27.283Z,94888
2018-05-02T18:54:56.435Z,94907
2018-05-02T19:00:26.581Z,94927
2018-05-02T19:05:55.480Z,94923
2018-05-02T19:11:23.650Z,94929
2018-05-02T19:16:52.553Z,94926
2018-05-02T19:22:20.725Z,94933
2018-05-02T19:27:59.076Z,94924
2018-05-02T19:33:43.233Z,94940
2018-05-02T19:39:11.587Z,94942
2018-05-02T19:44:40.508Z,94958
2018-05-02T19:50:09.425Z,94966
2018-05-02T19:55:37.700Z,94977
2018-05-02T20:01:13.475Z,94986
2018-05-02T20:06:42.417Z,94996
2018-05-02T20:12:16.116Z,94992
2018-05-02T20:17:44.276Z,94985
2018-05-02T20:23:31.741Z,94993
2018-05-02T20:29:00.725Z,94995
2018-05-02T20:34:29.101Z,94979
2018-05-02T20:39:59.307Z,94974
2018-05-02T20:45:28.480Z,94967
2018-05-02T20:50:56.814Z,94951
2018-05-02T20:56:31.134Z,94939
2018-05-02T21:02:04.419Z,94931
2018-05-02T21:07:32.671Z,94920
2018-05-02T21:13:00.833Z,94924
2018-05-02T21:18:29.011Z,94930
2018-05-02T21:23:57.920Z,94929
2018-05-02T21:29:26.069Z,94926
2018-05-02T21:34:54.250Z,94910
2018-05-02T21:40:23.334Z,94910
2018-05-02T21:45:51.585Z,94925
2018-05-02T21:51:20.560Z,94933
2018-05-02T21:56:48.734Z,94934
2018-05-02T22:02:17.772Z,94954
2018-05-02T22:07:46.696Z,94957
2018-05-02T22:13:14.836Z,94959
2018-05-02T22:18:43.738Z,94986
2018-05-02T22:24:11.878Z,94989
2018-05-02T22:29:42.758Z,94990
2018-05-02T22:35:11.148Z,95013
2018-05-02T22:40:39.329Z,95015
2018-05-02T22:46:07.477Z,95019
2018-05-02T22:51:35.635Z,95017
2018-05-02T22:57:03.760Z,95012
2018-05-02T23:02:31.923Z,95005
2018-05-02T23:08:00.045Z,95011
2018-05-02T23:13:28.226Z,95015
2018-05-02T23:18:56.371Z,95019
2018-05-02T23:24:24.509Z,95015
2018-05-02T23:29:52.704Z,95000
2018-05-02T23:35:21.813Z,94993
2018-05-02T23:40:50.742Z,95011
2018-05-02T23:46:18.936Z,95003
2018-05-02T23:51:47.106Z,95004
2018-05-02T23:57:16.099Z,95000
